Time;durP1;ratioP1;P1;durP2;ratioP2;P2;SDS_P1;SDS_P2;PMS_P1;PMS_P2;Temp;Humidity;BMP_temperature;BMP_pressure;BME280_temperature;BME280_humidity;BME280_pressure;Samples;Min_cycle;Max_cycle;Signal;HPM_P1;HPM_P2
2023/01/22 00:02:24;;;;;;;18.37;11.83;;;2.90;72.60;;;;;;5113187;28;20110;-68
2023/01/22 00:04:49;;;;;;;20.07;11.67;;;2.90;72.60;;;;;;5117096;28;20062;-68
2023/01/22 00:07:15;;;;;;;22.00;11.80;;;2.90;72.60;;;;;;5113109;28;20020;-68
2023/01/22 00:09:41;;;;;;;20.30;11.63;;;2.80;72.60;;;;;;5116937;28;20115;-67
2023/01/22 00:12:08;;;;;;;20.17;11.67;;;2.80;72.60;;;;;;5114712;28;20426;-68
2023/01/22 00:14:33;;;;;;;21.77;12.13;;;2.90;72.60;;;;;;5113781;28;20055;-68
2023/01/22 00:16:59;;;;;;;19.53;10.80;;;2.90;72.60;;;;;;5099327;28;20383;-67
2023/01/22 00:19:25;;;;;;;19.40;11.37;;;2.80;72.50;;;;;;5115338;28;20055;-68
2023/01/22 00:21:51;;;;;;;17.80;10.40;;;2.80;72.50;;;;;;5114525;28;20461;-69
2023/01/22 00:24:16;;;;;;;19.70;11.77;;;2.80;72.50;;;;;;5115363;28;20019;-68
2023/01/22 00:26:42;;;;;;;18.37;10.70;;;2.80;72.50;;;;;;5096059;28;20396;-68
2023/01/22 00:29:08;;;;;;;19.07;11.33;;;2.80;72.50;;;;;;5114540;28;20028;-67
2023/01/22 00:31:34;;;;;;;22.50;10.87;;;2.80;72.60;;;;;;5116537;28;20348;-68
2023/01/22 00:33:59;;;;;;;19.57;11.33;;;2.80;72.50;;;;;;5114451;28;20103;-68
2023/01/22 00:36:26;;;;;;;17.33;10.43;;;2.80;72.50;;;;;;5116554;28;20035;-68
2023/01/22 00:38:52;;;;;;;17.80;10.97;;;2.80;72.50;;;;;;5103942;28;20103;-68
2023/01/22 00:41:19;;;;;;;16.70;10.10;;;2.80;72.50;;;;;;5115280;28;20035;-68
2023/01/22 00:43:46;;;;;;;19.07;11.23;;;2.80;73.20;;;;;;5109796;28;20027;-68
2023/01/22 00:46:14;;;;;;;18.37;11.30;;;2.80;72.50;;;;;;5108536;28;20360;-68
2023/01/22 00:48:41;;;;;;;19.53;11.37;;;2.80;72.50;;;;;;5109347;28;20340;-68
2023/01/22 00:51:07;;;;;;;19.33;10.40;;;2.80;72.50;;;;;;5110301;28;20035;-68
2023/01/22 00:53:36;;;;;;;18.53;11.10;;;2.80;72.50;;;;;;5111459;28;20031;-68
2023/01/22 00:56:02;;;;;;;23.00;11.63;;;2.80;72.50;;;;;;5115756;28;20016;-67
2023/01/22 00:58:29;;;;;;;18.33;10.93;;;2.80;72.50;;;;;;5107359;28;20541;-67
2023/01/22 01:00:55;;;;;;;21.30;11.30;;;2.80;72.60;;;;;;5114630;28;20027;-68
2023/01/22 01:03:29;;;;;;;16.87;10.03;;;2.80;72.60;;;;;;5113896;28;20337;-68
2023/01/22 01:06:15;;;;;;;17.87;10.63;;;2.80;72.60;;;;;;5112752;28;20015;-68
2023/01/22 01:08:42;;;;;;;19.47;10.83;;;2.80;72.50;;;;;;5112248;28;20147;-67
2023/01/22 01:11:13;;;;;;;17.03;9.90;;;2.70;72.50;;;;;;5121865;27;20456;-67
2023/01/22 01:13:41;;;;;;;17.93;9.87;;;2.80;72.60;;;;;;5114069;28;20028;-67
2023/01/22 01:16:30;;;;;;;18.63;10.70;;;2.80;72.50;;;;;;5109245;28;20436;-67
2023/01/22 01:19:08;;;;;;;22.57;10.60;;;2.90;72.40;;;;;;5108212;28;20027;-68
2023/01/22 01:21:35;;;;;;;16.87;10.50;;;2.90;72.40;;;;;;5115388;28;20034;-68
2023/01/22 01:24:01;;;;;;;17.23;9.70;;;2.90;72.30;;;;;;5108750;28;20063;-68
2023/01/22 01:26:27;;;;;;;14.97;9.27;;;3.00;72.40;;;;;;5108932;28;20054;-68
2023/01/22 01:28:54;;;;;;;16.10;9.03;;;3.00;72.40;;;;;;5114365;28;20020;-68
2023/01/22 01:31:22;;;;;;;15.40;8.37;;;3.00;72.40;;;;;;5110022;28;20038;-68
2023/01/22 01:33:48;;;;;;;16.10;9.63;;;3.10;72.40;;;;;;5096905;28;20024;-68
2023/01/22 01:36:17;;;;;;;14.73;8.40;;;3.10;72.40;;;;;;5109718;28;20444;-69
2023/01/22 01:38:43;;;;;;;14.07;8.10;;;3.10;72.40;;;;;;5114491;28;20048;-68
2023/01/22 01:41:13;;;;;;;15.37;8.97;;;3.20;72.50;;;;;;5108739;28;20180;-68
2023/01/22 01:43:39;;;;;;;15.30;8.37;;;3.20;72.40;;;;;;5081869;28;20126;-68
2023/01/22 01:46:20;;;;;;;15.73;8.77;;;3.20;72.40;;;;;;5112919;28;20031;-67
2023/01/22 01:48:49;;;;;;;16.10;9.50;;;3.30;72.50;;;;;;5114453;28;20050;-68
2023/01/22 01:51:32;;;;;;;14.63;8.50;;;3.30;72.50;;;;;;5094982;28;20626;-68
2023/01/22 01:54:01;;;;;;;15.23;8.60;;;3.30;72.50;;;;;;5094774;28;20113;-68
2023/01/22 01:56:38;;;;;;;14.23;8.67;;;3.30;72.60;;;;;;5106680;28;20043;-68
2023/01/22 01:59:08;;;;;;;14.60;8.43;;;3.40;72.60;;;;;;5097147;28;20463;-68
2023/01/22 02:01:35;;;;;;;14.43;7.97;;;3.40;72.70;;;;;;5110557;28;20444;-68
2023/01/22 02:04:01;;;;;;;17.00;8.30;;;3.40;72.70;;;;;;5112981;28;20016;-68
2023/01/22 02:06:27;;;;;;;15.80;9.00;;;3.40;72.70;;;;;;5095424;28;20015;-68
2023/01/22 02:08:54;;;;;;;15.93;8.63;;;3.40;72.70;;;;;;5114043;28;20355;-67
2023/01/22 02:11:22;;;;;;;17.37;9.23;;;3.40;72.80;;;;;;5110514;28;20015;-67
2023/01/22 02:13:54;;;;;;;14.07;8.30;;;3.40;72.80;;;;;;5089497;28;20371;-68
2023/01/22 02:16:20;;;;;;;14.70;8.60;;;3.40;72.80;;;;;;5112481;28;20031;-67
2023/01/22 02:18:47;;;;;;;15.63;8.60;;;3.40;72.80;;;;;;5113848;28;20031;-68
2023/01/22 02:21:36;;;;;;;14.80;9.13;;;3.40;72.90;;;;;;5111439;28;20121;-68
2023/01/22 02:24:08;;;;;;;16.57;8.07;;;3.40;72.90;;;;;;5093777;28;20321;-68
2023/01/22 02:26:35;;;;;;;15.40;7.93;;;3.40;72.90;;;;;;5098403;28;20019;-68
2023/01/22 02:29:01;;;;;;;13.70;8.00;;;3.40;72.90;;;;;;5104398;28;20024;-68
2023/01/22 02:31:29;;;;;;;15.20;8.87;;;3.40;73.00;;;;;;5095062;27;20020;-67
2023/01/22 02:33:55;;;;;;;14.53;8.17;;;3.40;73.00;;;;;;5112399;28;20027;-68
2023/01/22 02:36:24;;;;;;;15.13;8.30;;;3.50;73.00;;;;;;5111262;28;20060;-68
2023/01/22 02:38:50;;;;;;;15.20;9.07;;;3.40;73.00;;;;;;5093134;28;20044;-67
2023/01/22 02:41:16;;;;;;;13.23;7.80;;;3.40;73.10;;;;;;5093319;28;20036;-68
2023/01/22 02:43:42;;;;;;;15.37;8.40;;;3.40;73.10;;;;;;5079033;28;20024;-68
2023/01/22 02:46:08;;;;;;;13.60;7.37;;;3.40;73.10;;;;;;5096771;28;20028;-68
2023/01/22 02:48:34;;;;;;;15.73;8.53;;;3.40;73.10;;;;;;5079915;28;20084;-68
2023/01/22 02:50:59;;;;;;;14.80;8.43;;;3.40;73.10;;;;;;5085818;28;20380;-67
2023/01/22 02:53:25;;;;;;;14.37;8.47;;;3.40;73.10;;;;;;5095532;28;20131;-67
2023/01/22 02:55:51;;;;;;;15.17;8.27;;;3.30;73.10;;;;;;5128610;27;20030;-68
2023/01/22 02:58:17;;;;;;;13.50;7.93;;;3.30;73.10;;;;;;5111457;28;20110;-67
2023/01/22 03:00:43;;;;;;;13.73;7.97;;;3.30;73.10;;;;;;5109238;28;20487;-68
2023/01/22 03:03:14;;;;;;;13.70;7.63;;;3.30;73.10;;;;;;5101187;28;20045;-68
2023/01/22 03:05:50;;;;;;;14.07;8.73;;;3.20;73.10;;;;;;5096529;28;20034;-68
2023/01/22 03:08:18;;;;;;;15.30;8.60;;;3.30;73.20;;;;;;5093903;28;20054;-68
2023/01/22 03:10:44;;;;;;;15.07;8.07;;;3.30;73.20;;;;;;5096174;28;20032;-68
2023/01/22 03:21:23;;;;;;;13.50;7.80;;;3.20;73.10;;;;;;5114163;28;20148;-68
2023/01/22 03:23:52;;;;;;;16.30;8.70;;;3.20;73.10;;;;;;5110974;28;20112;-67
2023/01/22 03:26:19;;;;;;;16.10;9.47;;;3.20;73.10;;;;;;5112986;28;20068;-67
2023/01/22 03:28:46;;;;;;;18.57;8.73;;;3.20;73.20;;;;;;5106289;28;20096;-68
2023/01/22 03:31:13;;;;;;;14.70;8.40;;;3.20;73.20;;;;;;5112932;28;20027;-68
2023/01/22 03:33:40;;;;;;;16.30;9.20;;;3.20;73.20;;;;;;5106168;28;20035;-68
2023/01/22 03:36:10;;;;;;;15.47;8.40;;;3.20;73.20;;;;;;5112439;28;20024;-68
2023/01/22 03:38:39;;;;;;;17.70;9.00;;;3.20;73.10;;;;;;5116412;28;20127;-67
2023/01/22 03:41:11;;;;;;;13.57;7.97;;;3.20;73.10;;;;;;5100265;28;20055;-68
2023/01/22 03:43:40;;;;;;;16.13;9.33;;;3.20;73.10;;;;;;5116000;27;20050;-67
2023/01/22 03:46:13;;;;;;;16.00;8.73;;;3.20;73.00;;;;;;5096422;28;20017;-68
2023/01/22 03:48:42;;;;;;;20.23;8.90;;;3.20;73.00;;;;;;5099366;28;20036;-67
2023/01/22 03:51:12;;;;;;;16.57;8.97;;;3.20;73.00;;;;;;5116686;28;20032;-68
2023/01/22 03:53:39;;;;;;;14.20;8.73;;;3.20;73.00;;;;;;5114422;28;20054;-67
2023/01/22 03:56:09;;;;;;;15.20;8.77;;;3.30;73.00;;;;;;5097101;28;20024;-67
2023/01/22 03:58:36;;;;;;;14.40;8.48;;;3.20;72.90;;;;;;5093916;28;20047;-67
2023/01/22 04:01:06;;;;;;;14.20;8.30;;;3.20;72.90;;;;;;5099497;28;20443;-68
2023/01/22 04:03:33;;;;;;;13.30;8.40;;;3.20;72.90;;;;;;5116772;28;20024;-67
2023/01/22 04:05:59;;;;;;;14.53;8.43;;;3.20;72.90;;;;;;5114816;28;20020;-67
2023/01/22 04:08:27;;;;;;;16.30;9.37;;;3.30;72.90;;;;;;5100016;28;20031;-67
2023/01/22 04:10:54;;;;;;;15.87;9.93;;;3.30;72.90;;;;;;5115023;28;20024;-67
2023/01/22 04:13:21;;;;;;;14.43;9.00;;;3.30;72.80;;;;;;5099265;28;20050;-68
2023/01/22 04:15:49;;;;;;;15.17;8.60;;;3.30;72.80;;;;;;5100647;28;20032;-68
2023/01/22 04:18:35;;;;;;;15.07;8.80;;;3.30;72.80;;;;;;5096812;28;20334;-68
2023/01/22 04:21:14;;;;;;;13.90;8.37;;;3.30;72.80;;;;;;5114847;28;20053;-67
2023/01/22 04:23:44;;;;;;;15.57;8.20;;;3.30;72.80;;;;;;5115836;28;20072;-67
2023/01/22 04:26:10;;;;;;;14.80;8.80;;;3.30;72.80;;;;;;5114957;28;20020;-67
2023/01/22 04:28:36;;;;;;;14.67;8.67;;;3.30;72.90;;;;;;5116947;28;20092;-67
2023/01/22 04:31:03;;;;;;;16.37;9.37;;;3.30;72.90;;;;;;5095705;28;20455;-67
2023/01/22 04:33:39;;;;;;;16.13;9.17;;;3.30;73.00;;;;;;5095784;28;20020;-67
2023/01/22 04:36:09;;;;;;;15.93;9.03;;;3.30;73.00;;;;;;5113719;27;20057;-67
2023/01/22 04:38:35;;;;;;;15.33;9.03;;;3.30;73.00;;;;;;5115202;28;20043;-67
2023/01/22 04:41:01;;;;;;;17.17;9.70;;;3.30;73.00;;;;;;5113252;28;20120;-67
2023/01/22 04:43:27;;;;;;;14.90;9.00;;;3.30;73.00;;;;;;5115316;28;20452;-68
2023/01/22 04:45:53;;;;;;;17.17;10.13;;;3.30;73.10;;;;;;5094242;28;20053;-68
2023/01/22 04:48:24;;;;;;;15.60;8.87;;;3.30;73.10;;;;;;5110982;28;20089;-67
2023/01/22 04:50:49;;;;;;;17.37;10.13;;;3.30;73.10;;;;;;5113836;27;20020;-68
2023/01/22 04:53:15;;;;;;;17.43;9.80;;;3.30;73.10;;;;;;5095132;28;20042;-68
2023/01/22 04:55:41;;;;;;;15.93;9.70;;;3.30;73.10;;;;;;5088232;28;20028;-67
2023/01/22 04:58:08;;;;;;;17.13;9.57;;;3.30;73.00;;;;;;5078377;28;20460;-67
2023/01/22 05:00:34;;;;;;;21.07;10.43;;;3.40;73.10;;;;;;5107170;28;20058;-68
2023/01/22 05:03:02;;;;;;;15.93;9.67;;;3.40;73.10;;;;;;5093513;28;20084;-68
2023/01/22 05:05:30;;;;;;;15.83;9.90;;;3.40;73.10;;;;;;5086590;28;20402;-68
2023/01/22 05:07:56;;;;;;;15.43;9.33;;;3.40;73.10;;;;;;5102428;28;20444;-67
2023/01/22 05:10:23;;;;;;;17.93;10.07;;;3.30;73.10;;;;;;5086984;28;20131;-68
2023/01/22 05:12:49;;;;;;;15.00;8.50;;;3.30;73.10;;;;;;5115283;28;20114;-67
2023/01/22 05:15:17;;;;;;;16.33;8.60;;;3.30;73.10;;;;;;5115134;28;20185;-68
2023/01/22 05:17:42;;;;;;;15.40;9.33;;;3.30;73.10;;;;;;5099403;28;20039;-67
2023/01/22 05:20:09;;;;;;;14.97;8.80;;;3.30;73.10;;;;;;5101567;28;20043;-67
2023/01/22 05:22:34;;;;;;;16.90;9.43;;;3.30;73.10;;;;;;5094018;28;20111;-67
2023/01/22 05:25:00;;;;;;;14.90;8.80;;;3.40;73.20;;;;;;5113653;28;20027;-68
2023/01/22 05:27:26;;;;;;;14.97;8.43;;;3.40;73.10;;;;;;5113366;28;20016;-67
2023/01/22 05:30:00;;;;;;;17.83;9.53;;;3.40;73.10;;;;;;5113681;28;20506;-68
2023/01/22 05:32:37;;;;;;;16.37;8.67;;;3.30;73.10;;;;;;5114519;28;20028;-67
2023/01/22 05:35:03;;;;;;;13.17;8.73;;;3.40;73.10;;;;;;5113192;28;20046;-67
2023/01/22 05:37:30;;;;;;;14.27;9.27;;;3.30;73.00;;;;;;5095362;28;20107;-67
2023/01/22 05:39:56;;;;;;;16.53;9.53;;;3.30;73.10;;;;;;5097151;28;20153;-68
2023/01/22 05:42:22;;;;;;;16.70;9.43;;;3.30;73.10;;;;;;5102485;28;20019;-67
2023/01/22 05:44:49;;;;;;;14.93;9.30;;;3.30;73.10;;;;;;5114609;28;20034;-67
2023/01/22 05:47:18;;;;;;;16.30;9.13;;;3.40;73.10;;;;;;5095047;28;20487;-68
2023/01/22 05:49:44;;;;;;;13.97;8.83;;;3.40;73.10;;;;;;5115372;28;20114;-68
2023/01/22 05:52:12;;;;;;;14.73;9.27;;;3.40;73.10;;;;;;5113932;28;20042;-67
2023/01/22 05:54:38;;;;;;;16.90;9.77;;;3.40;73.10;;;;;;5113270;28;20031;-67
2023/01/22 05:57:05;;;;;;;14.97;8.70;;;3.30;73.10;;;;;;5112754;28;20027;-68
2023/01/22 05:59:31;;;;;;;14.70;8.07;;;3.30;73.10;;;;;;5095858;28;20093;-68
2023/01/22 06:02:01;;;;;;;15.63;9.63;;;3.30;73.20;;;;;;5090141;28;20019;-67
2023/01/22 06:04:27;;;;;;;15.10;8.57;;;3.30;73.10;;;;;;5111483;28;20360;-68
2023/01/22 06:06:53;;;;;;;16.97;9.70;;;3.40;73.20;;;;;;5113796;28;20064;-68
2023/01/22 06:09:21;;;;;;;13.13;8.10;;;3.40;73.10;;;;;;5111986;28;20024;-68
2023/01/22 06:11:47;;;;;;;13.93;9.13;;;3.40;73.10;;;;;;5112833;28;20031;-67
2023/01/22 06:14:13;;;;;;;15.40;8.83;;;3.40;73.10;;;;;;5111150;28;20348;-68
2023/01/22 06:16:39;;;;;;;13.67;8.57;;;3.40;73.10;;;;;;5096630;28;20019;-68
2023/01/22 06:19:25;;;;;;;12.20;7.50;;;3.40;73.00;;;;;;5112521;28;20028;-67
2023/01/22 06:21:53;;;;;;;12.17;7.73;;;3.40;73.10;;;;;;5127808;27;20027;-67
2023/01/22 06:24:24;;;;;;;13.73;8.50;;;3.40;73.00;;;;;;5112082;28;20019;-67
2023/01/22 06:26:50;;;;;;;14.90;8.60;;;3.40;73.10;;;;;;5112164;28;20110;-67
2023/01/22 06:29:17;;;;;;;12.50;7.50;;;3.30;73.00;;;;;;5110892;28;20027;-67
2023/01/22 06:31:44;;;;;;;12.87;8.07;;;3.30;73.10;;;;;;5113373;28;20032;-67
2023/01/22 06:34:15;;;;;;;11.67;7.17;;;3.30;73.00;;;;;;5106062;28;20464;-66
2023/01/22 06:36:41;;;;;;;14.03;8.53;;;3.30;73.00;;;;;;5095130;28;20059;-66
2023/01/22 06:39:08;;;;;;;14.00;8.03;;;3.30;73.10;;;;;;5108336;28;20379;-67
2023/01/22 06:41:56;;;;;;;13.53;7.80;;;3.30;73.10;;;;;;5106069;28;20118;-67
2023/01/22 06:44:22;;;;;;;11.67;6.90;;;3.30;73.10;;;;;;5089989;28;20142;-67
2023/01/22 06:46:49;;;;;;;12.53;7.67;;;3.30;73.70;;;;;;5109527;28;20016;-68
2023/01/22 06:49:24;;;;;;;11.80;7.30;;;3.30;73.00;;;;;;5107741;28;20314;-66
2023/01/22 06:51:50;;;;;;;11.83;7.50;;;3.30;73.10;;;;;;5112293;28;20046;-68
2023/01/22 06:54:17;;;;;;;14.03;7.73;;;3.30;73.10;;;;;;5111932;28;20054;-67
2023/01/22 06:56:43;;;;;;;10.70;6.23;;;3.30;73.10;;;;;;5109281;28;20020;-68
2023/01/22 06:59:11;;;;;;;13.17;7.03;;;3.30;73.10;;;;;;5113333;28;20107;-68
2023/01/22 07:01:37;;;;;;;12.40;7.23;;;3.30;73.10;;;;;;5113706;28;20106;-67
2023/01/22 07:04:02;;;;;;;13.60;7.03;;;3.40;73.20;;;;;;5113451;28;20356;-68
2023/01/22 07:06:28;;;;;;;11.83;6.93;;;3.30;73.10;;;;;;5097214;28;20020;-68
2023/01/22 07:08:55;;;;;;;10.43;6.50;;;3.40;73.10;;;;;;5093983;28;20028;-68
2023/01/22 07:11:22;;;;;;;12.50;6.77;;;3.40;73.00;;;;;;5079732;28;20168;-67
2023/01/22 07:13:47;;;;;;;11.63;7.13;;;3.40;73.00;;;;;;5116269;28;20123;-68
2023/01/22 07:16:13;;;;;;;11.17;6.50;;;3.40;73.10;;;;;;5104936;28;20079;-67
2023/01/22 07:18:39;;;;;;;12.40;7.00;;;3.40;73.80;;;;;;5097650;28;20459;-68
2023/01/22 07:21:05;;;;;;;12.40;6.63;;;3.40;73.10;;;;;;5098119;28;20036;-68
2023/01/22 07:23:31;;;;;;;11.40;6.33;;;3.40;73.10;;;;;;5097942;28;20024;-67
2023/01/22 07:25:57;;;;;;;11.93;6.83;;;3.40;73.10;;;;;;5097912;28;20110;-70
2023/01/22 07:28:23;;;;;;;10.60;6.00;;;3.40;73.10;;;;;;5086759;28;20024;-69
2023/01/22 07:30:48;;;;;;;9.97;5.60;;;3.40;73.10;;;;;;5102745;28;20039;-69
2023/01/22 07:33:15;;;;;;;10.70;6.00;;;3.40;73.10;;;;;;5102254;28;20440;-70
2023/01/22 07:35:42;;;;;;;11.97;5.90;;;3.50;73.10;;;;;;5097116;28;20059;-69
2023/01/22 07:38:08;;;;;;;10.57;6.23;;;3.50;73.00;;;;;;5081993;28;20055;-69
2023/01/22 07:40:34;;;;;;;13.77;6.73;;;3.50;72.90;;;;;;5106930;28;20086;-69
2023/01/22 07:43:05;;;;;;;9.90;5.87;;;3.50;72.80;;;;;;5098926;28;20412;-69
2023/01/22 07:45:33;;;;;;;9.80;5.67;;;3.50;72.90;;;;;;5096754;28;20024;-68
2023/01/22 07:47:59;;;;;;;10.67;5.87;;;3.50;72.90;;;;;;5115651;27;20103;-69
2023/01/22 07:50:29;;;;;;;11.10;5.80;;;3.50;72.90;;;;;;5099329;28;20040;-68
2023/01/22 07:52:55;;;;;;;9.70;5.85;;;3.40;72.90;;;;;;5103392;28;20043;-69
2023/01/22 07:55:22;;;;;;;10.87;6.30;;;3.40;73.00;;;;;;5117717;28;20198;-69
2023/01/22 07:57:48;;;;;;;10.33;5.77;;;3.40;73.00;;;;;;5103119;28;20035;-69
2023/01/22 08:00:16;;;;;;;11.40;6.10;;;3.40;73.00;;;;;;5099803;28;20084;-68
2023/01/22 08:02:42;;;;;;;10.10;6.03;;;3.40;73.00;;;;;;5099521;28;20321;-69
2023/01/22 08:05:11;;;;;;;9.67;5.87;;;3.40;72.90;;;;;;5116419;28;20053;-69
2023/01/22 08:07:38;;;;;;;10.13;6.40;;;3.40;72.90;;;;;;5116647;28;20023;-68
2023/01/22 08:10:04;;;;;;;10.40;5.83;;;3.40;73.00;;;;;;5117535;28;20028;-68
2023/01/22 08:12:30;;;;;;;10.63;5.90;;;3.50;73.00;;;;;;5115452;28;20444;-69
2023/01/22 08:14:55;;;;;;;9.90;6.27;;;3.50;73.00;;;;;;5116557;28;20097;-67
2023/01/22 08:17:21;;;;;;;9.30;5.80;;;3.50;73.00;;;;;;5117315;28;20019;-68
2023/01/22 08:19:47;;;;;;;11.03;5.87;;;3.50;73.00;;;;;;5116068;28;20035;-67
2023/01/22 08:22:13;;;;;;;12.10;5.97;;;3.50;72.90;;;;;;5110720;28;20031;-70
2023/01/22 08:24:41;;;;;;;10.00;5.80;;;3.50;72.90;;;;;;5113801;28;20027;-70
2023/01/22 08:27:06;;;;;;;9.13;5.60;;;3.60;72.90;;;;;;5116262;28;20583;-70
2023/01/22 08:29:32;;;;;;;10.10;6.23;;;3.60;72.90;;;;;;5096474;28;20103;-69
2023/01/22 08:31:58;;;;;;;9.20;5.50;;;3.60;72.90;;;;;;5113581;28;20713;-70
2023/01/22 08:34:24;;;;;;;9.47;5.27;;;3.60;72.90;;;;;;5116340;28;20035;-70
2023/01/22 08:36:49;;;;;;;8.43;5.23;;;3.60;72.80;;;;;;5115987;28;20024;-69
2023/01/22 08:39:15;;;;;;;9.10;5.33;;;3.60;72.80;;;;;;5115021;28;20040;-69
2023/01/22 08:41:41;;;;;;;10.00;5.40;;;3.60;72.80;;;;;;5096866;28;20046;-69
2023/01/22 08:44:10;;;;;;;9.40;5.73;;;3.60;72.80;;;;;;5113946;28;20431;-69
2023/01/22 08:46:39;;;;;;;9.00;5.43;;;3.60;72.70;;;;;;5114784;28;20470;-69
2023/01/22 08:49:05;;;;;;;10.00;5.97;;;3.70;72.80;;;;;;5113916;28;20100;-69
2023/01/22 08:51:32;;;;;;;8.87;5.53;;;3.60;72.70;;;;;;5114320;28;20024;-70
2023/01/22 08:53:57;;;;;;;9.90;5.20;;;3.70;72.80;;;;;;5110770;28;20028;-69
2023/01/22 08:56:23;;;;;;;10.57;5.43;;;3.70;72.80;;;;;;5114254;28;20417;-71
2023/01/22 08:58:50;;;;;;;9.67;5.90;;;3.70;72.70;;;;;;5114254;28;20054;-70
2023/01/22 09:01:18;;;;;;;9.97;5.40;;;3.70;72.70;;;;;;5113934;28;20028;-69
2023/01/22 09:03:44;;;;;;;11.87;6.10;;;3.70;72.70;;;;;;5112857;28;20031;-70
2023/01/22 09:06:10;;;;;;;10.77;5.77;;;3.80;72.70;;;;;;5115027;28;20107;-69
2023/01/22 09:08:36;;;;;;;9.53;5.40;;;3.80;72.70;;;;;;5113885;28;20027;-70
2023/01/22 09:11:05;;;;;;;9.87;5.23;;;3.80;73.30;;;;;;5096301;28;20035;-70
2023/01/22 09:13:31;;;;;;;8.67;5.73;;;3.80;72.70;;;;;;5112475;28;20507;-70
2023/01/22 09:15:57;;;;;;;10.90;5.37;;;3.80;72.60;;;;;;5113127;28;20124;-69
2023/01/22 09:18:24;;;;;;;9.10;5.23;;;3.80;72.60;;;;;;5114529;28;20023;-70
2023/01/22 09:20:49;;;;;;;8.60;4.93;;;3.80;72.50;;;;;;5115099;28;21379;-70
2023/01/22 09:23:16;;;;;;;9.73;4.70;;;3.80;72.50;;;;;;5115144;28;20098;-70
2023/01/22 09:25:42;;;;;;;9.30;4.90;;;3.80;72.50;;;;;;5110446;28;20072;-70
2023/01/22 09:28:10;;;;;;;11.30;5.60;;;3.90;72.50;;;;;;5110537;28;20024;-70
2023/01/22 09:30:38;;;;;;;9.70;5.10;;;3.90;72.50;;;;;;5103624;28;20105;-69
2023/01/22 09:33:04;;;;;;;9.17;5.50;;;3.90;72.40;;;;;;5113415;28;20032;-69
2023/01/22 09:35:30;;;;;;;8.50;5.17;;;3.90;72.30;;;;;;5112700;28;20031;-69
2023/01/22 09:37:55;;;;;;;9.10;5.57;;;3.90;72.30;;;;;;5104353;28;20039;-69
2023/01/22 09:40:25;;;;;;;10.00;5.13;;;3.90;72.40;;;;;;5111129;28;20321;-69
2023/01/22 09:43:04;;;;;;;8.07;4.67;;;3.90;73.00;;;;;;5111867;28;20043;-69
2023/01/22 09:45:33;;;;;;;8.87;5.17;;;4.00;72.40;;;;;;5111450;28;20043;-69
2023/01/22 09:48:04;;;;;;;8.93;5.07;;;4.00;72.30;;;;;;5113148;28;20023;-69
2023/01/22 09:50:33;;;;;;;9.23;5.00;;;4.00;72.30;;;;;;5114524;28;20039;-68
2023/01/22 09:53:02;;;;;;;9.33;5.37;;;4.00;72.30;;;;;;5115284;28;20024;-68
2023/01/22 09:55:34;;;;;;;9.20;5.47;;;4.00;72.20;;;;;;5106111;28;20023;-69
2023/01/22 09:58:01;;;;;;;;;;;4.10;72.20;;;;;;5113791;28;20090;-70
2023/01/22 10:00:45;;;;;;;10.93;4.87;;;4.10;72.20;;;;;;5114032;28;20027;-68
2023/01/22 10:03:51;;;;;;;8.33;4.50;;;4.10;72.20;;;;;;5115385;28;20032;-69
2023/01/22 10:06:21;;;;;;;9.63;5.27;;;4.10;72.10;;;;;;5031979;28;20342;-69
2023/01/22 10:09:02;;;;;;;8.43;4.93;;;4.00;72.10;;;;;;5104764;28;20074;-69
2023/01/22 10:11:28;;;;;;;8.50;4.80;;;4.10;72.90;;;;;;5110413;28;20372;-69
2023/01/22 10:13:57;;;;;;;9.63;5.10;;;4.10;72.20;;;;;;5113017;28;20031;-71
2023/01/22 10:16:23;;;;;;;9.77;4.87;;;4.10;72.20;;;;;;5112085;28;20023;-69
2023/01/22 10:18:48;;;;;;;9.70;5.37;;;4.10;72.30;;;;;;5112211;28;20111;-71
2023/01/22 10:21:22;;;;;;;9.20;5.83;;;4.10;72.30;;;;;;5113574;28;20114;-69
2023/01/22 10:23:49;;;;;;;8.77;5.23;;;4.10;72.30;;;;;;5113222;28;20463;-69
2023/01/22 10:26:23;;;;;;;11.50;5.43;;;4.10;72.20;;;;;;5113293;28;20028;-70
2023/01/22 10:28:55;;;;;;;8.77;4.77;;;4.20;72.20;;;;;;5106314;27;20023;-69
2023/01/22 10:31:24;;;;;;;;;;;4.20;72.20;;;;;;5110144;28;20066;-69
2023/01/22 10:34:00;;;;;;;9.40;4.67;;;4.20;72.20;;;;;;5112247;28;20303;-70
2023/01/22 10:36:28;;;;;;;9.07;4.73;;;4.20;72.10;;;;;;5112010;28;20115;-70
2023/01/22 10:39:14;;;;;;;9.80;5.17;;;4.20;72.10;;;;;;5110628;28;20406;-70
2023/01/22 10:41:42;;;;;;;10.43;5.47;;;4.30;72.20;;;;;;5095084;28;20129;-71
2023/01/22 10:44:16;;;;;;;8.67;5.27;;;4.20;72.10;;;;;;5094406;28;20413;-70
2023/01/22 10:46:42;;;;;;;9.17;5.10;;;4.20;72.20;;;;;;5111994;28;20024;-69
2023/01/22 10:49:19;;;;;;;11.57;6.07;;;4.30;72.20;;;;;;5111658;28;20024;-69
2023/01/22 10:51:55;;;;;;;8.60;4.93;;;4.30;72.20;;;;;;5113172;28;20051;-69
2023/01/22 10:54:23;;;;;;;9.37;5.43;;;4.30;72.20;;;;;;5112504;28;20020;-69
2023/01/22 10:56:52;;;;;;;9.83;5.17;;;4.40;72.20;;;;;;5111707;28;20085;-70
2023/01/22 10:59:29;;;;;;;11.00;5.90;;;4.40;72.10;;;;;;5107072;28;20020;-70
2023/01/22 11:02:01;;;;;;;9.57;5.30;;;4.40;72.10;;;;;;5112102;28;20030;-70
2023/01/22 11:04:28;;;;;;;;;;;4.40;72.00;;;;;;5108432;28;20027;-71
2023/01/22 11:06:58;;;;;;;9.13;5.30;;;4.40;71.90;;;;;;5101311;28;19994;-70
2023/01/22 11:10:04;;;;;;;10.53;5.37;;;4.40;71.90;;;;;;5101011;28;20031;-71
2023/01/22 11:12:35;;;;;;;8.77;5.13;;;4.40;71.90;;;;;;5101715;28;20032;-69
2023/01/22 11:15:25;;;;;;;9.85;5.15;;;4.40;71.90;;;;;;5103873;28;20036;-70
2023/01/22 11:18:01;;;;;;;9.27;5.40;;;4.40;71.90;;;;;;5108978;28;20032;-71
2023/01/22 11:20:47;;;;;;;9.40;5.57;;;4.40;72.00;;;;;;5109363;28;20032;-72
2023/01/22 11:23:21;;;;;;;9.63;5.13;;;4.40;72.10;;;;;;5106733;28;20076;-69
2023/01/22 11:26:09;;;;;;;9.73;5.60;;;4.40;72.10;;;;;;5113989;28;20039;-68
2023/01/22 11:28:45;;;;;;;10.27;5.50;;;4.50;72.10;;;;;;5111591;28;20056;-68
2023/01/22 11:31:40;;;;;;;13.27;5.90;;;4.50;72.10;;;;;;5106999;28;20459;-69
2023/01/22 11:34:24;;;;;;;10.20;5.63;;;4.50;72.10;;;;;;5079542;28;20040;-69
2023/01/22 11:37:11;;;;;;;10.53;5.77;;;4.50;72.10;;;;;;5114136;28;20027;-68
2023/01/22 11:40:14;;;;;;;10.97;4.70;;;4.40;72.10;;;;;;5108006;28;20036;-68
2023/01/22 11:43:21;;;;;;;10.20;5.97;;;4.40;72.10;;;;;;5109647;28;20036;-68
2023/01/22 11:45:55;;;;;;;10.33;5.47;;;4.40;72.10;;;;;;5083605;28;20168;-69
2023/01/22 11:48:39;;;;;;;10.03;5.23;;;4.40;72.20;;;;;;5109570;28;20028;-69
2023/01/22 11:51:36;;;;;;;11.03;5.87;;;4.40;72.20;;;;;;5110512;28;20031;-71
2023/01/22 11:54:30;;;;;;;10.37;5.23;;;4.50;72.20;;;;;;5112332;28;20336;-70
2023/01/22 11:57:09;;;;;;;10.93;5.97;;;4.40;72.10;;;;;;5111027;28;20047;-70
2023/01/22 12:00:21;;;;;;;9.90;5.33;;;4.50;72.10;;;;;;5114278;28;20081;-70
2023/01/22 12:03:05;;;;;;;11.60;5.97;;;4.50;72.00;;;;;;5094476;28;20032;-70
2023/01/22 12:05:37;;;;;;;10.23;5.70;;;4.50;72.00;;;;;;5113530;28;20039;-71
2023/01/22 12:08:03;;;;;;;9.87;5.67;;;4.50;72.00;;;;;;5113997;28;20024;-70
2023/01/22 12:10:29;;;;;;;11.50;5.60;;;4.60;72.10;;;;;;5110584;28;20113;-71
2023/01/22 12:13:18;;;;;;;12.43;6.97;;;4.60;72.00;;;;;;5114641;28;20452;-71
2023/01/22 12:16:02;;;;;;;14.03;5.63;;;4.60;72.10;;;;;;5125933;27;20036;-71
2023/01/22 12:19:00;;;;;;;12.83;6.30;;;4.60;72.10;;;;;;5115614;27;20131;-71
2023/01/22 12:21:45;;;;;;;11.83;6.27;;;4.70;72.10;;;;;;5088045;28;20036;-70
2023/01/22 12:24:20;;;;;;;10.67;5.37;;;4.70;71.90;;;;;;5116396;27;20019;-68
2023/01/22 12:27:14;;;;;;;11.73;5.67;;;4.70;71.90;;;;;;5108792;28;20088;-69
2023/01/22 12:30:06;;;;;;;10.13;6.00;;;4.70;71.90;;;;;;5113891;28;20070;-68
2023/01/22 12:32:35;;;;;;;;;;;4.80;71.90;;;;;;5096508;27;20118;-69
2023/01/22 12:35:05;;;;;;;11.63;5.40;;;4.80;71.90;;;;;;5114082;28;19916;-69
2023/01/22 12:38:10;;;;;;;9.97;5.70;;;4.80;71.80;;;;;;5113142;28;20023;-68
2023/01/22 12:40:54;;;;;;;10.03;5.40;;;4.80;71.70;;;;;;5108844;28;20044;-68
2023/01/22 12:43:28;;;;;;;10.10;5.40;;;4.80;71.80;;;;;;5114408;28;20034;-69
2023/01/22 12:46:02;;;;;;;11.50;6.23;;;4.80;71.70;;;;;;5111340;28;20310;-69
2023/01/22 12:49:04;;;;;;;10.60;6.17;;;4.80;71.80;;;;;;5112731;27;20426;-70
2023/01/22 12:51:40;;;;;;;11.55;6.65;;;4.80;71.80;;;;;;5093742;28;20045;-70
2023/01/22 12:54:27;;;;;;;11.00;5.40;;;4.80;71.80;;;;;;5115293;28;20462;-69
2023/01/22 12:57:10;;;;;;;11.87;6.33;;;4.80;71.90;;;;;;5112475;28;20471;-70
2023/01/22 12:59:38;;;;;;;13.93;6.50;;;4.80;71.90;;;;;;5109916;28;20157;-71
2023/01/22 13:02:36;;;;;;;11.43;6.50;;;4.80;72.00;;;;;;5108251;28;20026;-69
2023/01/22 13:05:12;;;;;;;12.40;6.17;;;4.80;71.90;;;;;;5096060;28;20031;-70
2023/01/22 13:07:42;;;;;;;11.23;6.13;;;4.80;71.90;;;;;;5110691;28;20031;-70
2023/01/22 13:10:30;;;;;;;13.70;7.00;;;4.90;71.90;;;;;;5112401;28;20043;-69
2023/01/22 13:13:03;;;;;;;11.67;6.40;;;4.90;71.90;;;;;;5111250;28;20037;-70
2023/01/22 13:15:37;;;;;;;12.67;7.27;;;4.80;71.90;;;;;;5114322;28;20032;-71